createdAt,value
2018-06-02T00:01:07.351Z,88.00
2018-06-02T00:03:33.569Z,88.00
2018-06-02T00:06:00.558Z,87.60
2018-06-02T00:08:26.797Z,87.70
2018-06-02T00:10:53.282Z,88.00
2018-06-02T00:13:20.289Z,86.90
2018-06-02T00:15:47.150Z,86.90
2018-06-02T00:18:13.366Z,86.60
2018-06-02T00:20:40.014Z,86.70
2018-06-02T00:23:06.250Z,87.30
2018-06-02T00:25:32.517Z,87.90
2018-06-02T00:27:59.168Z,87.60
2018-06-02T00:30:25.927Z,87.40
2018-06-02T00:32:52.924Z,87.90
2018-06-02T00:35:19.150Z,88.00
2018-06-02T00:37:45.395Z,87.70
2018-06-02T00:40:12.606Z,87.00
2018-06-02T00:42:40.309Z,88.10
2018-06-02T00:45:06.920Z,88.00
2018-06-02T00:47:34.205Z,90.20
2018-06-02T00:50:00.431Z,90.30
2018-06-02T00:52:26.651Z,91.10
2018-06-02T00:55:05.305Z,90.60
2018-06-02T00:57:32.150Z,89.90
2018-06-02T00:59:58.361Z,90.00
2018-06-02T01:02:25.281Z,90.00
2018-06-02T01:04:52.264Z,90.80
2018-06-02T01:07:18.494Z,90.90
2018-06-02T01:09:45.417Z,91.20
2018-06-02T01:12:12.702Z,92.20
2018-06-02T01:14:38.914Z,92.30
2018-06-02T01:17:05.142Z,91.80
2018-06-02T01:19:32.625Z,93.00
2018-06-02T01:21:59.322Z,93.10
2018-06-02T01:24:26.059Z,92.90
2018-06-02T01:26:52.853Z,92.50
2018-06-02T01:29:19.854Z,92.40
2018-06-02T01:31:46.070Z,92.50
2018-06-02T01:34:12.314Z,92.30
2018-06-02T01:36:38.544Z,91.80
2018-06-02T01:39:04.890Z,92.70
2018-06-02T01:41:31.125Z,91.60
2018-06-02T01:43:57.960Z,92.00
2018-06-02T01:46:24.614Z,92.20
2018-06-02T01:48:50.859Z,94.20
2018-06-02T01:51:17.090Z,93.80
2018-06-02T01:53:43.813Z,96.10
2018-06-02T01:56:10.029Z,97.80
2018-06-02T01:58:36.685Z,95.80
2018-06-02T02:01:02.901Z,95.30
2018-06-02T02:03:29.118Z,96.30
2018-06-02T02:05:56.446Z,96.70
2018-06-02T02:08:22.683Z,97.00
2018-06-02T02:10:49.297Z,97.70
2018-06-02T02:13:15.517Z,97.10
2018-06-02T02:15:42.305Z,98.50
2018-06-02T02:18:09.149Z,98.40
2018-06-02T02:20:35.934Z,97.90
2018-06-02T02:23:02.967Z,97.00
2018-06-02T02:25:29.197Z,96.90
2018-06-02T02:27:55.438Z,96.60
2018-06-02T02:30:21.663Z,96.30
2018-06-02T02:32:47.981Z,97.50
2018-06-02T02:35:14.222Z,96.30
2018-06-02T02:37:40.897Z,97.40
2018-06-02T02:40:07.848Z,97.30
2018-06-02T02:42:35.149Z,96.40
2018-06-02T02:45:02.109Z,96.30
2018-06-02T02:47:28.646Z,95.90
2018-06-02T02:49:54.858Z,95.20
2018-06-02T02:52:21.081Z,95.50
2018-06-02T02:54:47.328Z,96.10
2018-06-02T02:57:14.094Z,95.80
2018-06-02T02:59:40.966Z,95.20
2018-06-02T03:02:07.189Z,95.10
2018-06-02T03:04:33.413Z,95.30
2018-06-02T03:07:01.041Z,95.30
2018-06-02T03:09:27.613Z,95.30
2018-06-02T03:11:54.143Z,95.30
2018-06-02T03:14:20.697Z,94.70
2018-06-02T03:16:46.926Z,94.60
2018-06-02T03:19:13.149Z,93.90
2018-06-02T03:21:39.696Z,93.60
2018-06-02T03:24:05.909Z,93.70
2018-06-02T03:26:32.133Z,94.20
2018-06-02T03:28:59.114Z,94.80
2018-06-02T03:31:25.358Z,94.90
2018-06-02T03:33:51.669Z,93.90
2018-06-02T03:36:17.925Z,93.70
2018-06-02T03:38:44.137Z,92.90
2018-06-02T03:41:10.352Z,92.60
2018-06-02T03:43:37.759Z,93.80
2018-06-02T03:46:04.413Z,93.80
2018-06-02T03:48:31.053Z,93.60
2018-06-02T03:50:57.288Z,93.60
2018-06-02T03:53:23.514Z,93.40
2018-06-02T03:55:49.768Z,93.90
2018-06-02T03:58:17.146Z,93.60
2018-06-02T04:00:58.358Z,94.30
2018-06-02T04:03:25.445Z,94.50
2018-06-02T04:05:53.229Z,94.00
2018-06-02T04:08:19.542Z,93.90
2018-06-02T04:10:46.488Z,94.20
2018-06-02T04:13:12.869Z,95.00
2018-06-02T04:15:39.253Z,95.30
2018-06-02T04:18:05.615Z,95.30
2018-06-02T04:20:32.813Z,95.60
2018-06-02T04:22:59.781Z,95.10
2018-06-02T04:25:25.997Z,95.10
2018-06-02T04:27:52.979Z,95.40
2018-06-02T04:30:19.213Z,95.40
2018-06-02T04:32:45.517Z,95.00
2018-06-02T04:35:12.498Z,94.00
2018-06-02T04:37:38.709Z,94.00
2018-06-02T04:40:05.668Z,93.40
2018-06-02T04:42:32.866Z,93.40
2018-06-02T04:44:59.743Z,93.30
2018-06-02T04:47:26.650Z,92.80
2018-06-02T04:49:53.897Z,92.80
2018-06-02T04:52:20.746Z,92.60
2018-06-02T04:54:47.480Z,92.50
2018-06-02T04:57:14.470Z,92.10
2018-06-02T04:59:41.703Z,92.20
2018-06-02T05:02:08.650Z,92.40
2018-06-02T05:04:35.602Z,92.10
2018-06-02T05:07:01.833Z,91.60
2018-06-02T05:09:28.808Z,91.80
2018-06-02T05:11:55.021Z,91.20
2018-06-02T05:14:21.237Z,90.60
2018-06-02T05:16:47.469Z,90.40
2018-06-02T05:19:13.697Z,90.30
2018-06-02T05:21:40.757Z,92.00
2018-06-02T05:24:07.006Z,92.10
2018-06-02T05:26:33.222Z,90.70
2018-06-02T05:28:59.425Z,91.10
2018-06-02T05:31:26.036Z,90.90
2018-06-02T05:33:52.769Z,90.70
2018-06-02T05:36:18.985Z,90.50
2018-06-02T05:38:45.630Z,90.00
2018-06-02T05:41:11.853Z,90.50
2018-06-02T05:43:39.153Z,91.50
2018-06-02T05:46:05.845Z,91.50
2018-06-02T05:48:32.805Z,91.40
2018-06-02T05:51:00.089Z,91.30
2018-06-02T05:53:26.317Z,91.30
2018-06-02T05:55:52.882Z,90.70
2018-06-02T05:58:19.811Z,90.80
2018-06-02T06:00:46.641Z,90.40
2018-06-02T06:03:12.857Z,90.50
2018-06-02T06:05:39.821Z,90.80
2018-06-02T06:08:07.211Z,90.10
2018-06-02T06:10:33.445Z,90.00
2018-06-02T06:12:59.677Z,89.30
2018-06-02T06:15:26.528Z,88.40
2018-06-02T06:17:53.442Z,89.00
2018-06-02T06:20:20.407Z,87.60
2018-06-02T06:22:48.063Z,87.30
2018-06-02T06:25:15.025Z,85.10
2018-06-02T06:27:41.754Z,85.20
2018-06-02T06:30:09.053Z,84.90
2018-06-02T06:32:35.687Z,84.90
2018-06-02T06:35:01.937Z,85.30
2018-06-02T06:37:28.537Z,83.50
2018-06-02T06:39:55.503Z,82.40
2018-06-02T06:42:22.229Z,82.20
2018-06-02T06:44:49.525Z,83.20
2018-06-02T06:47:16.084Z,83.10
2018-06-02T06:49:42.673Z,82.20
2018-06-02T06:52:09.641Z,82.50
2018-06-02T06:54:35.853Z,82.40
2018-06-02T06:57:04.101Z,82.70
2018-06-02T06:59:30.797Z,82.60
2018-06-02T07:01:57.009Z,80.70
2018-06-02T07:04:24.786Z,79.90
2018-06-02T07:06:51.742Z,81.10
2018-06-02T07:09:17.951Z,81.00
2018-06-02T07:11:44.950Z,81.50
2018-06-02T07:14:11.173Z,80.70
2018-06-02T07:16:37.513Z,80.50
2018-06-02T07:19:03.769Z,81.20
2018-06-02T07:21:31.085Z,80.90
2018-06-02T07:23:58.054Z,79.20
2018-06-02T07:26:24.261Z,78.40
2018-06-02T07:28:51.737Z,78.50
2018-06-02T07:31:19.324Z,78.60
2018-06-02T07:33:45.542Z,78.50
2018-06-02T07:36:12.129Z,77.70
2018-06-02T07:38:38.915Z,78.40
2018-06-02T07:41:05.880Z,77.50
2018-06-02T07:43:32.645Z,77.50
2018-06-02T07:45:59.425Z,76.70
2018-06-02T07:48:25.646Z,75.80
2018-06-02T07:50:51.853Z,77.60
2018-06-02T07:53:18.102Z,76.10
2018-06-02T07:55:44.645Z,74.50
2018-06-02T07:58:10.878Z,73.90
2018-06-02T08:00:37.101Z,74.00
2018-06-02T08:03:03.673Z,72.60
2018-06-02T08:05:29.913Z,74.20
2018-06-02T08:07:56.134Z,75.90
2018-06-02T08:10:22.375Z,75.10
2018-06-02T08:12:48.599Z,72.50
2018-06-02T08:15:14.888Z,73.00
2018-06-02T08:17:42.754Z,72.90
2018-06-02T08:20:10.376Z,72.20
2018-06-02T08:22:37.150Z,72.00
2018-06-02T08:25:04.729Z,72.50
2018-06-02T08:27:32.137Z,71.60
2018-06-02T08:29:59.150Z,71.50
2018-06-02T08:32:26.097Z,69.50
2018-06-02T08:34:53.415Z,71.80
2018-06-02T08:37:19.646Z,70.90
2018-06-02T08:39:45.886Z,71.40
2018-06-02T08:42:12.871Z,69.50
2018-06-02T08:44:40.265Z,68.30
2018-06-02T08:47:06.949Z,68.20
2018-06-02T08:49:33.172Z,67.80
2018-06-02T08:51:59.403Z,66.90
2018-06-02T08:54:26.118Z,67.60
2018-06-02T08:56:52.344Z,64.50
2018-06-02T08:59:18.565Z,65.60
2018-06-02T09:01:45.326Z,67.10
2018-06-02T09:04:11.535Z,66.10
2018-06-02T09:06:38.540Z,63.60
2018-06-02T09:09:05.193Z,63.50
2018-06-02T09:11:31.414Z,61.50
2018-06-02T09:13:57.641Z,62.00
2018-06-02T09:16:24.293Z,59.50
2018-06-02T09:18:50.509Z,60.70
2018-06-02T09:21:16.725Z,60.30
2018-06-02T09:23:42.969Z,59.20
2018-06-02T09:26:09.206Z,59.40
2018-06-02T09:28:35.857Z,60.00
2018-06-02T09:31:02.109Z,60.30
2018-06-02T09:33:28.317Z,60.50
2018-06-02T09:35:55.453Z,60.50
2018-06-02T09:38:21.681Z,58.40
2018-06-02T09:40:48.657Z,59.20
2018-06-02T09:43:15.181Z,59.30
2018-06-02T09:45:41.728Z,59.40
2018-06-02T09:48:08.317Z,60.20
2018-06-02T09:50:35.033Z,59.30
2018-06-02T09:53:01.849Z,56.20
2018-06-02T09:55:29.152Z,55.10
2018-06-02T09:57:55.890Z,54.90
2018-06-02T10:00:25.051Z,54.20
2018-06-02T10:02:52.046Z,52.70
2018-06-02T10:05:18.846Z,52.30
2018-06-02T10:07:46.234Z,55.60
2018-06-02T10:10:12.454Z,55.40
2018-06-02T10:12:40.813Z,55.20
2018-06-02T10:15:07.383Z,54.40
2018-06-02T10:17:33.605Z,54.50
2018-06-02T10:20:00.578Z,53.30
2018-06-02T10:22:26.818Z,53.20
2018-06-02T10:24:53.038Z,54.30
2018-06-02T10:27:19.877Z,53.50
2018-06-02T10:29:47.369Z,53.20
2018-06-02T10:32:13.575Z,53.20
2018-06-02T10:34:39.810Z,53.80
2018-06-02T10:37:06.526Z,50.70
2018-06-02T10:39:32.806Z,51.80
2018-06-02T10:41:59.746Z,53.40
2018-06-02T10:44:26.366Z,53.40
2018-06-02T10:46:54.409Z,50.70
2018-06-02T10:49:21.197Z,50.30
2018-06-02T10:51:48.510Z,51.40
2018-06-02T10:54:14.733Z,51.30
2018-06-02T10:56:40.941Z,51.20
2018-06-02T10:59:07.190Z,52.20
2018-06-02T11:01:33.855Z,52.10
2018-06-02T11:04:00.653Z,51.60
2018-06-02T11:06:28.339Z,53.60
2018-06-02T11:08:54.568Z,53.60
2018-06-02T11:11:20.817Z,53.50
2018-06-02T11:13:47.057Z,52.80
2018-06-02T11:16:13.598Z,53.20
2018-06-02T11:18:40.085Z,54.10
2018-06-02T11:21:06.990Z,52.50
2018-06-02T11:23:33.214Z,54.00
2018-06-02T11:25:59.993Z,51.40
2018-06-02T11:28:26.205Z,52.10
2018-06-02T11:30:52.425Z,51.80
2018-06-02T11:33:18.653Z,52.70
2018-06-02T11:35:44.900Z,52.30
2018-06-02T11:38:11.244Z,51.50
2018-06-02T11:40:37.485Z,52.80
2018-06-02T11:43:04.334Z,50.60
2018-06-02T11:45:31.089Z,53.70
2018-06-02T11:47:57.774Z,54.60
2018-06-02T11:50:24.996Z,54.70
2018-06-02T11:52:51.957Z,54.20
2018-06-02T11:55:18.837Z,54.30
2018-06-02T11:57:46.146Z,54.20
2018-06-02T12:00:12.384Z,54.20
2018-06-02T12:02:38.620Z,54.20
2018-06-02T12:05:04.873Z,54.40
2018-06-02T12:07:31.086Z,54.30
2018-06-02T12:09:57.385Z,55.20
2018-06-02T12:12:23.633Z,56.00
2018-06-02T12:14:50.473Z,56.30
2018-06-02T12:17:17.026Z,56.90
2018-06-02T12:19:43.254Z,57.30
2018-06-02T12:22:09.481Z,56.20
2018-06-02T12:24:36.016Z,57.10
2018-06-02T12:27:02.270Z,57.90
2018-06-02T12:29:28.495Z,57.90
2018-06-02T12:31:54.720Z,58.10
2018-06-02T12:34:20.945Z,57.50
2018-06-02T12:36:47.257Z,56.60
2018-06-02T12:39:14.260Z,54.60
2018-06-02T12:41:40.909Z,54.50
2018-06-02T12:44:07.533Z,53.90
2018-06-02T12:46:34.118Z,53.50
2018-06-02T12:49:00.347Z,54.40
2018-06-02T12:51:28.053Z,50.30
2018-06-02T12:53:55.062Z,50.40
2018-06-02T12:56:21.281Z,50.40
2018-06-02T12:58:47.588Z,51.30
2018-06-02T13:01:13.866Z,50.50
2018-06-02T13:03:40.113Z,50.30
2018-06-02T13:06:06.341Z,50.50
2018-06-02T13:08:33.019Z,50.40
2018-06-02T13:11:00.641Z,50.10
2018-06-02T13:13:27.145Z,50.00
2018-06-02T13:15:54.069Z,50.10
2018-06-02T13:18:21.039Z,49.90
2018-06-02T13:20:47.769Z,49.90
2018-06-02T13:23:14.726Z,48.80
2018-06-02T13:25:41.702Z,49.60
2018-06-02T13:28:07.965Z,49.50
2018-06-02T13:30:34.190Z,48.70
2018-06-02T13:33:00.949Z,48.30
2018-06-02T13:35:27.942Z,48.80
2018-06-02T13:37:55.314Z,48.60
2018-06-02T13:40:21.998Z,48.60
2018-06-02T13:42:48.663Z,47.70
2018-06-02T13:45:14.878Z,46.10
2018-06-02T13:47:41.869Z,46.70
2018-06-02T13:50:08.841Z,44.70
2018-06-02T13:52:35.670Z,44.50
2018-06-02T13:55:02.670Z,44.50
2018-06-02T13:57:29.502Z,44.40
2018-06-02T13:59:55.737Z,45.30
2018-06-02T14:02:21.958Z,45.80
2018-06-02T14:04:48.204Z,45.30
2018-06-02T14:07:15.022Z,45.80
2018-06-02T14:09:41.987Z,47.60
2018-06-02T14:12:08.697Z,47.50
2018-06-02T14:14:35.672Z,47.20
2018-06-02T14:17:02.024Z,47.10
2018-06-02T14:19:28.745Z,46.70
2018-06-02T14:21:55.704Z,47.40
2018-06-02T14:24:21.913Z,47.40
2018-06-02T14:26:48.701Z,47.60
2018-06-02T14:29:15.463Z,47.40
2018-06-02T14:31:41.669Z,47.50
2018-06-02T14:34:07.894Z,47.90
2018-06-02T14:36:34.155Z,48.70
2018-06-02T14:39:00.880Z,49.60
2018-06-02T14:41:28.329Z,50.20
2018-06-02T14:43:55.922Z,52.50
2018-06-02T14:46:22.737Z,52.50
2018-06-02T14:48:49.707Z,53.40
2018-06-02T14:51:15.930Z,53.40
2018-06-02T14:53:42.905Z,54.30
2018-06-02T14:56:09.653Z,54.30
2018-06-02T14:58:35.879Z,54.90
2018-06-02T15:01:02.101Z,55.20
2018-06-02T15:03:28.353Z,55.90
2018-06-02T15:05:54.577Z,55.10
2018-06-02T15:08:20.911Z,55.80
2018-06-02T15:10:47.164Z,55.70
2018-06-02T15:13:13.399Z,55.90
2018-06-02T15:15:40.101Z,55.90
2018-06-02T15:18:07.673Z,56.00
2018-06-02T15:20:34.641Z,56.20
2018-06-02T15:23:01.213Z,56.20
2018-06-02T15:25:28.006Z,55.80
2018-06-02T15:27:54.997Z,56.60
2018-06-02T15:30:21.214Z,56.50
2018-06-02T15:32:47.463Z,56.70
2018-06-02T15:35:14.133Z,56.70
2018-06-02T15:37:40.681Z,56.70
2018-06-02T15:40:06.913Z,56.40
2018-06-02T15:42:33.566Z,56.00
2018-06-02T15:45:00.360Z,55.90
2018-06-02T15:47:26.913Z,55.80
2018-06-02T15:49:53.141Z,54.80
2018-06-02T15:52:19.358Z,55.00
2018-06-02T15:54:46.030Z,55.20
2018-06-02T15:57:12.245Z,54.00
2018-06-02T15:59:38.502Z,53.30
2018-06-02T16:02:04.774Z,52.30
2018-06-02T16:04:31.025Z,51.60
2018-06-02T16:06:58.077Z,52.10
2018-06-02T16:09:25.377Z,52.90
2018-06-02T16:11:51.591Z,52.90
2018-06-02T16:14:18.430Z,52.70
2018-06-02T16:16:45.925Z,53.50
2018-06-02T16:19:12.158Z,53.40
2018-06-02T16:21:38.381Z,53.80
2018-06-02T16:24:04.631Z,53.90
2018-06-02T16:26:30.869Z,54.20
2018-06-02T16:28:57.801Z,54.30
2018-06-02T16:31:24.381Z,54.50
2018-06-02T16:33:50.928Z,54.60
2018-06-02T16:36:19.111Z,55.20
2018-06-02T16:38:46.061Z,55.40
2018-06-02T16:41:14.203Z,55.60
2018-06-02T16:43:40.761Z,55.50
2018-06-02T16:46:06.984Z,55.70
2018-06-02T16:48:33.854Z,56.50
2018-06-02T16:51:00.085Z,57.40
2018-06-02T16:53:26.310Z,57.60
2018-06-02T16:55:52.567Z,58.30
2018-06-02T16:58:18.833Z,59.90
2018-06-02T17:00:45.450Z,62.90
2018-06-02T17:03:12.081Z,61.20
2018-06-02T17:05:38.345Z,63.70
2018-06-02T17:08:05.314Z,62.70
2018-06-02T17:10:31.583Z,62.80
2018-06-02T17:12:58.773Z,64.50
2018-06-02T17:15:25.014Z,64.90
2018-06-02T17:17:52.447Z,64.20
2018-06-02T17:20:18.673Z,64.30
2018-06-02T17:22:44.897Z,66.20
2018-06-02T17:25:11.153Z,66.70
2018-06-02T17:27:38.741Z,70.10
2018-06-02T17:30:06.169Z,69.80
2018-06-02T17:32:34.502Z,69.60
2018-06-02T17:35:02.074Z,72.00
2018-06-02T17:37:28.773Z,72.20
2018-06-02T17:39:55.416Z,70.20
2018-06-02T17:42:23.285Z,68.80
2018-06-02T17:44:49.829Z,69.80
2018-06-02T17:47:16.401Z,70.40
2018-06-02T17:49:43.367Z,71.20
2018-06-02T17:52:09.598Z,70.50
2018-06-02T17:54:36.605Z,72.80
2018-06-02T17:57:03.533Z,72.60
2018-06-02T17:59:29.776Z,71.30
2018-06-02T18:01:56.645Z,71.50
2018-06-02T18:04:22.889Z,71.40
2018-06-02T18:06:49.496Z,71.80
2018-06-02T18:09:16.161Z,72.20
2018-06-02T18:11:42.405Z,71.50
2018-06-02T18:14:08.641Z,72.50
2018-06-02T18:16:35.494Z,71.80
2018-06-02T18:19:01.714Z,73.40
2018-06-02T18:21:27.936Z,73.80
2018-06-02T18:23:54.629Z,73.40
2018-06-02T18:26:21.609Z,73.10
2018-06-02T18:28:48.872Z,73.10
2018-06-02T18:31:15.702Z,73.30
2018-06-02T18:33:41.928Z,73.80
2018-06-02T18:36:09.801Z,76.40
2018-06-02T18:38:36.867Z,76.10
2018-06-02T18:41:03.208Z,76.40
2018-06-02T18:43:30.169Z,75.40
2018-06-02T18:45:57.066Z,77.90
2018-06-02T18:48:24.567Z,76.90
2018-06-02T18:50:50.784Z,77.40
2018-06-02T18:53:17.789Z,76.10
2018-06-02T18:55:44.536Z,76.30
2018-06-02T18:58:11.379Z,76.60
2018-06-02T19:00:37.615Z,76.50
2018-06-02T19:03:03.878Z,76.30
2018-06-02T19:05:30.885Z,76.60
2018-06-02T19:07:57.516Z,76.70
2018-06-02T19:10:23.850Z,76.60
2018-06-02T19:12:50.083Z,76.00
2018-06-02T19:15:16.447Z,76.70
2018-06-02T19:17:42.672Z,76.70
2018-06-02T19:20:08.982Z,77.00
2018-06-02T19:22:35.652Z,77.50
2018-06-02T19:25:02.368Z,77.00
2018-06-02T19:27:28.983Z,77.80
2018-06-02T19:29:55.871Z,76.90
2018-06-02T19:32:22.133Z,77.10
2018-06-02T19:34:48.897Z,76.70
2018-06-02T19:37:15.217Z,77.00
2018-06-02T19:39:41.856Z,78.00
2018-06-02T19:42:08.654Z,77.80
2018-06-02T19:44:36.429Z,80.60
2018-06-02T19:47:04.114Z,79.40
2018-06-02T19:49:30.361Z,79.60
2018-06-02T19:51:56.942Z,78.70
2018-06-02T19:54:23.537Z,78.30
2018-06-02T19:56:50.338Z,77.80
2018-06-02T19:59:17.317Z,77.50
2018-06-02T20:01:43.533Z,77.60
2018-06-02T20:04:10.940Z,77.30
2018-06-02T20:06:37.176Z,77.30
2018-06-02T20:09:03.450Z,77.50
2018-06-02T20:11:29.697Z,77.50
2018-06-02T20:13:57.099Z,77.50
2018-06-02T20:16:23.314Z,77.50
2018-06-02T20:18:49.534Z,78.10
2018-06-02T20:21:17.006Z,77.10
2018-06-02T20:23:43.604Z,77.20
2018-06-02T20:26:09.836Z,77.10
2018-06-02T20:28:36.664Z,76.80
2018-06-02T20:31:02.909Z,76.30
2018-06-02T20:33:29.146Z,75.70
2018-06-02T20:35:55.399Z,75.60
2018-06-02T20:38:21.631Z,75.30
2018-06-02T20:40:48.257Z,75.40
2018-06-02T20:43:15.048Z,75.40
2018-06-02T20:45:42.342Z,75.00
2018-06-02T20:48:09.120Z,75.00
2018-06-02T20:50:35.369Z,74.60
2018-06-02T20:53:02.752Z,75.90
2018-06-02T20:55:29.713Z,76.10
2018-06-02T20:57:55.929Z,76.20
2018-06-02T21:00:22.926Z,75.80
2018-06-02T21:02:49.762Z,75.60
2018-06-02T21:05:15.992Z,75.60
2018-06-02T21:07:42.873Z,75.50
2018-06-02T21:10:09.118Z,75.80
2018-06-02T21:12:35.356Z,75.50
2018-06-02T21:15:01.617Z,75.50
2018-06-02T21:17:27.864Z,75.20
2018-06-02T21:19:54.417Z,75.20
2018-06-02T21:22:21.173Z,75.80
2018-06-02T21:24:47.775Z,75.90
2018-06-02T21:27:14.736Z,75.40
2018-06-02T21:29:42.025Z,76.00
2018-06-02T21:32:08.250Z,76.00
2018-06-02T21:34:34.481Z,75.90
2018-06-02T21:37:01.126Z,75.70
2018-06-02T21:39:27.985Z,75.80
2018-06-02T21:41:54.553Z,75.70
2018-06-02T21:44:21.262Z,75.60
2018-06-02T21:46:47.949Z,75.40
2018-06-02T21:49:14.562Z,75.00
2018-06-02T21:51:40.793Z,75.50
2018-06-02T21:54:07.032Z,75.60
2018-06-02T21:56:33.304Z,75.80
2018-06-02T21:58:59.574Z,76.10
2018-06-02T22:01:26.149Z,75.90
2018-06-02T22:03:52.370Z,75.70
2018-06-02T22:06:19.266Z,76.20
2018-06-02T22:08:45.881Z,76.00
2018-06-02T22:11:12.750Z,76.10
2018-06-02T22:13:40.241Z,76.50
2018-06-02T22:16:07.545Z,76.00
2018-06-02T22:18:33.774Z,76.00
2018-06-02T22:21:00.270Z,76.20
2018-06-02T22:23:27.934Z,76.10
2018-06-02T22:25:54.903Z,76.00
2018-06-02T22:28:21.597Z,76.00
2018-06-02T22:30:47.831Z,75.90
2018-06-02T22:33:14.048Z,75.70
2018-06-02T22:35:40.309Z,75.70
2018-06-02T22:38:07.701Z,76.20
2018-06-02T22:40:34.677Z,76.40
2018-06-02T22:43:01.702Z,76.50
2018-06-02T22:45:28.671Z,76.40
2018-06-02T22:47:55.253Z,76.30
2018-06-02T22:50:21.495Z,76.50
2018-06-02T22:52:47.757Z,76.40
2018-06-02T22:55:15.533Z,77.20
2018-06-02T22:57:42.941Z,77.10
2018-06-02T23:00:09.210Z,77.20
2018-06-02T23:02:36.183Z,77.00
2018-06-02T23:05:03.198Z,77.00
2018-06-02T23:07:29.473Z,77.00
2018-06-02T23:09:56.414Z,77.00
2018-06-02T23:12:23.390Z,77.00
2018-06-02T23:14:50.213Z,77.00
2018-06-02T23:17:17.596Z,76.60
2018-06-02T23:19:43.822Z,76.60
2018-06-02T23:22:37.081Z,76.50
2018-06-02T23:25:03.783Z,76.60
2018-06-02T23:27:31.504Z,76.80
2018-06-02T23:29:59.053Z,76.90
2018-06-02T23:32:26.076Z,76.60
2018-06-02T23:34:53.045Z,77.30
2018-06-02T23:37:19.707Z,77.30
2018-06-02T23:39:45.928Z,77.30
2018-06-02T23:42:12.501Z,77.40
2018-06-02T23:44:39.139Z,77.30
2018-06-02T23:47:06.461Z,77.80
2018-06-02T23:49:33.423Z,77.70
2018-06-02T23:51:59.655Z,77.70
2018-06-02T23:54:26.692Z,77.60
2018-06-02T23:56:54.461Z,77.40
2018-06-02T23:59:21.422Z,78.00
